sensor_id;sensor_type;location;lat;lon;timestamp;temperature;humidity
37806;DHT22;25082;50.870;0.022;2023-05-17T00:00:33;19.00;61.90
37806;DHT22;25082;50.870;0.022;2023-05-17T00:02:58;19.00;61.80
37806;DHT22;25082;50.870;0.022;2023-05-17T00:05:24;19.00;61.90
37806;DHT22;25082;50.870;0.022;2023-05-17T00:07:49;19.00;61.90
37806;DHT22;25082;50.870;0.022;2023-05-17T00:10:15;19.00;61.90
37806;DHT22;25082;50.870;0.022;2023-05-17T00:12:41;19.00;61.90
37806;DHT22;25082;50.870;0.022;2023-05-17T00:15:07;19.00;61.90
37806;DHT22;25082;50.870;0.022;2023-05-17T00:17:32;19.00;61.90
37806;DHT22;25082;50.870;0.022;2023-05-17T00:19:58;19.00;62.00
37806;DHT22;25082;50.870;0.022;2023-05-17T00:22:23;19.00;61.90
37806;DHT22;25082;50.870;0.022;2023-05-17T00:24:49;18.90;61.90
37806;DHT22;25082;50.870;0.022;2023-05-17T00:27:15;18.90;61.90
37806;DHT22;25082;50.870;0.022;2023-05-17T00:29:40;18.90;61.90
37806;DHT22;25082;50.870;0.022;2023-05-17T00:32:06;18.90;61.90
37806;DHT22;25082;50.870;0.022;2023-05-17T00:34:31;18.90;61.90
37806;DHT22;25082;50.870;0.022;2023-05-17T00:36:57;18.90;61.90
37806;DHT22;25082;50.870;0.022;2023-05-17T00:39:22;18.90;61.90
37806;DHT22;25082;50.870;0.022;2023-05-17T00:41:48;18.90;62.00
37806;DHT22;25082;50.870;0.022;2023-05-17T00:44:14;18.90;62.00
37806;DHT22;25082;50.870;0.022;2023-05-17T00:46:39;18.90;61.90
37806;DHT22;25082;50.870;0.022;2023-05-17T00:49:05;18.90;62.00
37806;DHT22;25082;50.870;0.022;2023-05-17T00:51:30;18.90;61.90
37806;DHT22;25082;50.870;0.022;2023-05-17T00:53:57;18.90;62.00
37806;DHT22;25082;50.870;0.022;2023-05-17T00:56:23;18.90;62.00
37806;DHT22;25082;50.870;0.022;2023-05-17T00:58:49;18.90;62.00
37806;DHT22;25082;50.870;0.022;2023-05-17T01:01:15;18.90;62.60
37806;DHT22;25082;50.870;0.022;2023-05-17T01:03:41;18.90;62.00
37806;DHT22;25082;50.870;0.022;2023-05-17T01:06:06;18.90;62.10
37806;DHT22;25082;50.870;0.022;2023-05-17T01:08:32;18.90;62.10
37806;DHT22;25082;50.870;0.022;2023-05-17T01:18:47;18.80;62.00
37806;DHT22;25082;50.870;0.022;2023-05-17T01:21:24;18.80;62.00
37806;DHT22;25082;50.870;0.022;2023-05-17T01:23:54;18.80;62.00
37806;DHT22;25082;50.870;0.022;2023-05-17T01:28:54;18.80;62.00
37806;DHT22;25082;50.870;0.022;2023-05-17T01:31:21;18.80;62.00
37806;DHT22;25082;50.870;0.022;2023-05-17T01:33:47;18.80;62.10
37806;DHT22;25082;50.870;0.022;2023-05-17T01:36:13;18.80;62.00
37806;DHT22;25082;50.870;0.022;2023-05-17T01:38:38;18.70;62.00
37806;DHT22;25082;50.870;0.022;2023-05-17T01:43:45;18.70;62.10
37806;DHT22;25082;50.870;0.022;2023-05-17T01:48:43;18.70;62.10
37806;DHT22;25082;50.870;0.022;2023-05-17T01:51:10;18.70;62.10
37806;DHT22;25082;50.870;0.022;2023-05-17T01:53:42;18.70;62.10
37806;DHT22;25082;50.870;0.022;2023-05-17T01:56:11;18.70;62.10
37806;DHT22;25082;50.870;0.022;2023-05-17T01:58:46;18.70;62.10
37806;DHT22;25082;50.870;0.022;2023-05-17T02:01:16;18.70;62.10
37806;DHT22;25082;50.870;0.022;2023-05-17T02:03:42;18.70;62.10
37806;DHT22;25082;50.870;0.022;2023-05-17T02:06:08;18.70;62.20
37806;DHT22;25082;50.870;0.022;2023-05-17T02:08:34;18.70;62.10
37806;DHT22;25082;50.870;0.022;2023-05-17T02:10:59;18.70;62.20
37806;DHT22;25082;50.870;0.022;2023-05-17T02:13:25;18.70;62.10
37806;DHT22;25082;50.870;0.022;2023-05-17T02:15:50;18.70;62.20
37806;DHT22;25082;50.870;0.022;2023-05-17T02:18:16;18.70;62.20
37806;DHT22;25082;50.870;0.022;2023-05-17T02:20:41;18.70;62.20
37806;DHT22;25082;50.870;0.022;2023-05-17T02:23:07;18.70;62.10
37806;DHT22;25082;50.870;0.022;2023-05-17T02:25:33;18.70;62.10
37806;DHT22;25082;50.870;0.022;2023-05-17T02:27:58;18.60;62.20
37806;DHT22;25082;50.870;0.022;2023-05-17T02:30:24;18.60;62.20
37806;DHT22;25082;50.870;0.022;2023-05-17T02:32:50;18.60;62.20
37806;DHT22;25082;50.870;0.022;2023-05-17T02:35:15;18.60;62.20
37806;DHT22;25082;50.870;0.022;2023-05-17T02:37:41;18.60;62.20
37806;DHT22;25082;50.870;0.022;2023-05-17T02:40:06;18.60;62.20
37806;DHT22;25082;50.870;0.022;2023-05-17T02:42:37;18.60;62.20
37806;DHT22;25082;50.870;0.022;2023-05-17T02:45:03;18.60;62.10
37806;DHT22;25082;50.870;0.022;2023-05-17T02:47:28;18.60;62.10
37806;DHT22;25082;50.870;0.022;2023-05-17T02:49:54;18.60;62.10
37806;DHT22;25082;50.870;0.022;2023-05-17T02:52:20;18.60;62.20
37806;DHT22;25082;50.870;0.022;2023-05-17T02:54:45;18.60;62.30
37806;DHT22;25082;50.870;0.022;2023-05-17T02:57:12;18.60;62.20
37806;DHT22;25082;50.870;0.022;2023-05-17T02:59:37;18.50;62.10
37806;DHT22;25082;50.870;0.022;2023-05-17T03:02:03;18.50;62.20
37806;DHT22;25082;50.870;0.022;2023-05-17T03:04:29;18.50;62.20
37806;DHT22;25082;50.870;0.022;2023-05-17T03:06:54;18.50;62.20
37806;DHT22;25082;50.870;0.022;2023-05-17T03:09:20;18.50;62.20
37806;DHT22;25082;50.870;0.022;2023-05-17T03:11:46;18.50;62.30
37806;DHT22;25082;50.870;0.022;2023-05-17T03:14:11;18.50;62.30
37806;DHT22;25082;50.870;0.022;2023-05-17T03:16:37;18.50;62.30
37806;DHT22;25082;50.870;0.022;2023-05-17T03:19:03;18.50;62.20
37806;DHT22;25082;50.870;0.022;2023-05-17T03:21:29;18.50;62.20
37806;DHT22;25082;50.870;0.022;2023-05-17T03:23:54;18.50;62.30
37806;DHT22;25082;50.870;0.022;2023-05-17T03:26:20;18.50;62.30
37806;DHT22;25082;50.870;0.022;2023-05-17T03:28:47;18.50;62.30
37806;DHT22;25082;50.870;0.022;2023-05-17T03:31:12;18.50;62.30
37806;DHT22;25082;50.870;0.022;2023-05-17T03:33:38;18.50;62.30
37806;DHT22;25082;50.870;0.022;2023-05-17T03:36:04;18.50;62.30
37806;DHT22;25082;50.870;0.022;2023-05-17T03:38:29;18.50;62.30
37806;DHT22;25082;50.870;0.022;2023-05-17T03:40:55;18.50;62.30
37806;DHT22;25082;50.870;0.022;2023-05-17T03:43:21;18.50;62.30
37806;DHT22;25082;50.870;0.022;2023-05-17T03:45:46;18.40;62.20
37806;DHT22;25082;50.870;0.022;2023-05-17T03:48:12;18.40;62.30
37806;DHT22;25082;50.870;0.022;2023-05-17T03:50:37;18.40;62.30
37806;DHT22;25082;50.870;0.022;2023-05-17T03:53:05;18.40;62.20
37806;DHT22;25082;50.870;0.022;2023-05-17T03:55:30;18.40;62.20
37806;DHT22;25082;50.870;0.022;2023-05-17T03:57:56;18.40;62.30
37806;DHT22;25082;50.870;0.022;2023-05-17T04:00:22;18.40;62.30
37806;DHT22;25082;50.870;0.022;2023-05-17T04:02:49;18.40;62.30
37806;DHT22;25082;50.870;0.022;2023-05-17T04:05:14;18.40;62.30
37806;DHT22;25082;50.870;0.022;2023-05-17T04:07:40;18.40;62.30
37806;DHT22;25082;50.870;0.022;2023-05-17T04:10:06;18.40;62.30
37806;DHT22;25082;50.870;0.022;2023-05-17T04:12:32;18.40;62.30
37806;DHT22;25082;50.870;0.022;2023-05-17T04:14:58;18.40;62.30
37806;DHT22;25082;50.870;0.022;2023-05-17T04:17:23;18.40;62.30
37806;DHT22;25082;50.870;0.022;2023-05-17T04:19:49;18.40;62.30
37806;DHT22;25082;50.870;0.022;2023-05-17T04:22:14;18.40;62.30
37806;DHT22;25082;50.870;0.022;2023-05-17T04:24:40;18.30;62.30
37806;DHT22;25082;50.870;0.022;2023-05-17T04:27:05;18.30;62.30
37806;DHT22;25082;50.870;0.022;2023-05-17T04:29:32;18.30;62.30
37806;DHT22;25082;50.870;0.022;2023-05-17T04:31:58;18.40;62.30
37806;DHT22;25082;50.870;0.022;2023-05-17T04:34:23;18.40;62.30
37806;DHT22;25082;50.870;0.022;2023-05-17T04:36:49;18.30;62.30
37806;DHT22;25082;50.870;0.022;2023-05-17T04:39:15;18.30;62.30
37806;DHT22;25082;50.870;0.022;2023-05-17T04:41:41;18.30;62.30
37806;DHT22;25082;50.870;0.022;2023-05-17T04:44:07;18.30;62.30
37806;DHT22;25082;50.870;0.022;2023-05-17T04:46:33;18.30;62.30
37806;DHT22;25082;50.870;0.022;2023-05-17T04:48:58;18.30;62.30
37806;DHT22;25082;50.870;0.022;2023-05-17T04:51:24;18.30;62.30
37806;DHT22;25082;50.870;0.022;2023-05-17T04:53:51;18.30;62.30
37806;DHT22;25082;50.870;0.022;2023-05-17T04:56:19;18.30;62.40
37806;DHT22;25082;50.870;0.022;2023-05-17T04:58:45;18.30;62.30
37806;DHT22;25082;50.870;0.022;2023-05-17T05:01:10;18.30;62.30
37806;DHT22;25082;50.870;0.022;2023-05-17T05:03:36;18.30;62.40
37806;DHT22;25082;50.870;0.022;2023-05-17T05:06:02;18.30;62.30
37806;DHT22;25082;50.870;0.022;2023-05-17T05:08:28;18.20;62.30
37806;DHT22;25082;50.870;0.022;2023-05-17T05:10:54;18.30;62.40
37806;DHT22;25082;50.870;0.022;2023-05-17T05:13:20;18.30;62.40
37806;DHT22;25082;50.870;0.022;2023-05-17T05:15:46;18.30;62.40
37806;DHT22;25082;50.870;0.022;2023-05-17T05:18:11;18.30;62.40
37806;DHT22;25082;50.870;0.022;2023-05-17T05:20:37;18.20;62.40
37806;DHT22;25082;50.870;0.022;2023-05-17T05:23:02;18.20;62.40
37806;DHT22;25082;50.870;0.022;2023-05-17T05:25:30;18.20;62.30
37806;DHT22;25082;50.870;0.022;2023-05-17T05:27:56;18.20;62.40
37806;DHT22;25082;50.870;0.022;2023-05-17T05:30:21;18.20;62.40
37806;DHT22;25082;50.870;0.022;2023-05-17T05:32:50;18.20;62.40
37806;DHT22;25082;50.870;0.022;2023-05-17T05:35:16;18.10;62.40
37806;DHT22;25082;50.870;0.022;2023-05-17T05:37:42;18.20;62.40
37806;DHT22;25082;50.870;0.022;2023-05-17T05:40:08;18.20;62.50
37806;DHT22;25082;50.870;0.022;2023-05-17T05:42:34;18.20;62.50
37806;DHT22;25082;50.870;0.022;2023-05-17T05:44:59;18.20;62.50
37806;DHT22;25082;50.870;0.022;2023-05-17T05:47:25;18.20;62.50
37806;DHT22;25082;50.870;0.022;2023-05-17T05:49:50;18.20;62.50
37806;DHT22;25082;50.870;0.022;2023-05-17T05:52:16;18.20;62.50
37806;DHT22;25082;50.870;0.022;2023-05-17T05:54:42;18.20;62.60
37806;DHT22;25082;50.870;0.022;2023-05-17T05:57:08;18.20;62.50
37806;DHT22;25082;50.870;0.022;2023-05-17T05:59:34;18.20;62.60
37806;DHT22;25082;50.870;0.022;2023-05-17T06:01:59;18.20;62.60
37806;DHT22;25082;50.870;0.022;2023-05-17T06:04:25;18.20;62.60
37806;DHT22;25082;50.870;0.022;2023-05-17T06:06:51;18.20;62.70
37806;DHT22;25082;50.870;0.022;2023-05-17T06:09:16;18.20;62.70
37806;DHT22;25082;50.870;0.022;2023-05-17T06:11:42;18.20;62.90
37806;DHT22;25082;50.870;0.022;2023-05-17T06:14:07;18.20;62.80
37806;DHT22;25082;50.870;0.022;2023-05-17T06:16:33;18.20;62.80
37806;DHT22;25082;50.870;0.022;2023-05-17T06:18:59;18.20;62.80
37806;DHT22;25082;50.870;0.022;2023-05-17T06:21:24;18.30;62.70
37806;DHT22;25082;50.870;0.022;2023-05-17T06:23:51;18.30;62.70
37806;DHT22;25082;50.870;0.022;2023-05-17T06:26:16;18.30;62.70
37806;DHT22;25082;50.870;0.022;2023-05-17T06:28:42;18.30;62.60
37806;DHT22;25082;50.870;0.022;2023-05-17T06:31:07;18.30;62.60
37806;DHT22;25082;50.870;0.022;2023-05-17T06:33:33;18.40;63.20
37806;DHT22;25082;50.870;0.022;2023-05-17T06:35:58;18.30;62.60
37806;DHT22;25082;50.870;0.022;2023-05-17T06:38:24;18.40;62.60
37806;DHT22;25082;50.870;0.022;2023-05-17T06:40:50;18.40;62.60
37806;DHT22;25082;50.870;0.022;2023-05-17T06:43:16;18.40;62.60
37806;DHT22;25082;50.870;0.022;2023-05-17T06:45:41;18.40;62.60
37806;DHT22;25082;50.870;0.022;2023-05-17T06:48:07;18.40;62.60
37806;DHT22;25082;50.870;0.022;2023-05-17T06:50:33;18.40;62.70
37806;DHT22;25082;50.870;0.022;2023-05-17T06:52:58;18.40;62.70
37806;DHT22;25082;50.870;0.022;2023-05-17T06:55:24;18.40;62.70
37806;DHT22;25082;50.870;0.022;2023-05-17T06:57:49;18.40;62.70
37806;DHT22;25082;50.870;0.022;2023-05-17T07:00:15;18.50;62.90
37806;DHT22;25082;50.870;0.022;2023-05-17T07:02:41;18.50;62.90
37806;DHT22;25082;50.870;0.022;2023-05-17T07:05:06;18.50;62.90
37806;DHT22;25082;50.870;0.022;2023-05-17T07:07:32;18.50;62.90
37806;DHT22;25082;50.870;0.022;2023-05-17T07:09:58;18.50;62.90
37806;DHT22;25082;50.870;0.022;2023-05-17T07:12:23;18.50;63.00
37806;DHT22;25082;50.870;0.022;2023-05-17T07:14:49;18.50;63.00
37806;DHT22;25082;50.870;0.022;2023-05-17T07:17:15;18.50;63.10
37806;DHT22;25082;50.870;0.022;2023-05-17T07:19:40;18.50;63.10
37806;DHT22;25082;50.870;0.022;2023-05-17T07:22:06;18.50;63.10
37806;DHT22;25082;50.870;0.022;2023-05-17T07:24:31;18.50;63.20
37806;DHT22;25082;50.870;0.022;2023-05-17T07:26:57;18.50;63.20
37806;DHT22;25082;50.870;0.022;2023-05-17T07:29:23;18.50;63.20
37806;DHT22;25082;50.870;0.022;2023-05-17T07:31:48;18.50;63.30
37806;DHT22;25082;50.870;0.022;2023-05-17T07:34:14;18.50;63.30
37806;DHT22;25082;50.870;0.022;2023-05-17T07:36:40;18.50;63.30
37806;DHT22;25082;50.870;0.022;2023-05-17T07:39:05;18.60;63.40
37806;DHT22;25082;50.870;0.022;2023-05-17T07:41:31;18.60;63.40
37806;DHT22;25082;50.870;0.022;2023-05-17T07:43:58;18.60;63.40
37806;DHT22;25082;50.870;0.022;2023-05-17T07:46:24;18.60;63.50
37806;DHT22;25082;50.870;0.022;2023-05-17T07:48:49;18.60;63.40
37806;DHT22;25082;50.870;0.022;2023-05-17T07:51:15;18.60;63.50
37806;DHT22;25082;50.870;0.022;2023-05-17T07:53:41;18.60;63.50
37806;DHT22;25082;50.870;0.022;2023-05-17T07:56:06;18.60;63.50
37806;DHT22;25082;50.870;0.022;2023-05-17T07:58:32;18.60;63.50
37806;DHT22;25082;50.870;0.022;2023-05-17T08:00:58;18.70;63.50
37806;DHT22;25082;50.870;0.022;2023-05-17T08:03:23;18.70;63.60
37806;DHT22;25082;50.870;0.022;2023-05-17T08:05:49;18.70;63.60
37806;DHT22;25082;50.870;0.022;2023-05-17T08:08:14;18.70;63.60
37806;DHT22;25082;50.870;0.022;2023-05-17T08:10:40;18.70;63.60
37806;DHT22;25082;50.870;0.022;2023-05-17T08:13:07;18.70;63.60
37806;DHT22;25082;50.870;0.022;2023-05-17T08:15:33;18.80;63.70
37806;DHT22;25082;50.870;0.022;2023-05-17T08:17:59;18.80;63.70
37806;DHT22;25082;50.870;0.022;2023-05-17T08:20:24;18.80;63.80
37806;DHT22;25082;50.870;0.022;2023-05-17T08:22:50;18.80;63.80
37806;DHT22;25082;50.870;0.022;2023-05-17T08:25:15;18.80;63.80
37806;DHT22;25082;50.870;0.022;2023-05-17T08:27:41;18.80;63.80
37806;DHT22;25082;50.870;0.022;2023-05-17T08:30:07;18.80;63.90
37806;DHT22;25082;50.870;0.022;2023-05-17T08:32:32;18.80;63.90
37806;DHT22;25082;50.870;0.022;2023-05-17T08:34:58;18.80;63.90
37806;DHT22;25082;50.870;0.022;2023-05-17T08:37:23;18.80;63.90
37806;DHT22;25082;50.870;0.022;2023-05-17T08:39:49;18.90;64.00
37806;DHT22;25082;50.870;0.022;2023-05-17T08:42:21;18.80;64.00
37806;DHT22;25082;50.870;0.022;2023-05-17T08:44:51;18.90;64.10
37806;DHT22;25082;50.870;0.022;2023-05-17T08:47:18;18.90;64.10
37806;DHT22;25082;50.870;0.022;2023-05-17T08:49:50;18.90;64.10
37806;DHT22;25082;50.870;0.022;2023-05-17T08:52:16;18.90;64.10
37806;DHT22;25082;50.870;0.022;2023-05-17T08:54:42;18.90;64.10
37806;DHT22;25082;50.870;0.022;2023-05-17T08:57:07;18.90;64.20
37806;DHT22;25082;50.870;0.022;2023-05-17T08:59:34;18.90;64.20
37806;DHT22;25082;50.870;0.022;2023-05-17T09:02:00;18.90;64.20
37806;DHT22;25082;50.870;0.022;2023-05-17T09:04:25;18.90;64.70
37806;DHT22;25082;50.870;0.022;2023-05-17T09:06:51;19.00;64.20
37806;DHT22;25082;50.870;0.022;2023-05-17T09:09:17;19.00;64.30
37806;DHT22;25082;50.870;0.022;2023-05-17T09:11:43;18.90;64.20
37806;DHT22;25082;50.870;0.022;2023-05-17T09:14:08;19.00;64.30
37806;DHT22;25082;50.870;0.022;2023-05-17T09:16:34;19.00;64.30
37806;DHT22;25082;50.870;0.022;2023-05-17T09:19:00;19.00;64.30
37806;DHT22;25082;50.870;0.022;2023-05-17T09:21:27;19.00;64.60
37806;DHT22;25082;50.870;0.022;2023-05-17T09:23:53;19.00;64.60
37806;DHT22;25082;50.870;0.022;2023-05-17T09:26:19;19.00;64.70
37806;DHT22;25082;50.870;0.022;2023-05-17T09:28:45;19.00;64.90
37806;DHT22;25082;50.870;0.022;2023-05-17T09:31:14;19.00;65.10
37806;DHT22;25082;50.870;0.022;2023-05-17T09:33:49;19.00;65.30
37806;DHT22;25082;50.870;0.022;2023-05-17T09:36:19;19.10;65.40
37806;DHT22;25082;50.870;0.022;2023-05-17T09:38:58;19.00;65.50
37806;DHT22;25082;50.870;0.022;2023-05-17T09:41:28;19.10;65.70
37806;DHT22;25082;50.870;0.022;2023-05-17T09:44:00;19.10;65.80
37806;DHT22;25082;50.870;0.022;2023-05-17T09:46:26;19.10;65.80
37806;DHT22;25082;50.870;0.022;2023-05-17T09:48:54;19.10;66.00
37806;DHT22;25082;50.870;0.022;2023-05-17T09:51:30;19.10;66.00
37806;DHT22;25082;50.870;0.022;2023-05-17T09:53:55;19.20;66.10
37806;DHT22;25082;50.870;0.022;2023-05-17T09:56:22;19.20;66.00
37806;DHT22;25082;50.870;0.022;2023-05-17T09:58:47;19.20;66.10
37806;DHT22;25082;50.870;0.022;2023-05-17T10:01:13;19.20;66.30
37806;DHT22;25082;50.870;0.022;2023-05-17T10:03:39;19.10;61.80
37806;DHT22;25082;50.870;0.022;2023-05-17T10:06:06;19.10;62.00
37806;DHT22;25082;50.870;0.022;2023-05-17T10:08:33;19.10;64.00
37806;DHT22;25082;50.870;0.022;2023-05-17T10:11:02;19.10;64.20
37806;DHT22;25082;50.870;0.022;2023-05-17T10:13:30;19.10;64.20
37806;DHT22;25082;50.870;0.022;2023-05-17T10:15:59;19.10;64.80
37806;DHT22;25082;50.870;0.022;2023-05-17T10:18:25;19.10;64.40
37806;DHT22;25082;50.870;0.022;2023-05-17T10:20:51;19.10;64.50
37806;DHT22;25082;50.870;0.022;2023-05-17T10:23:17;19.20;64.60
37806;DHT22;25082;50.870;0.022;2023-05-17T10:25:43;19.20;64.70
37806;DHT22;25082;50.870;0.022;2023-05-17T10:28:09;19.30;64.70
37806;DHT22;25082;50.870;0.022;2023-05-17T10:30:35;19.50;64.30
37806;DHT22;25082;50.870;0.022;2023-05-17T10:33:01;19.90;63.50
37806;DHT22;25082;50.870;0.022;2023-05-17T10:35:28;20.10;62.80
37806;DHT22;25082;50.870;0.022;2023-05-17T10:37:56;20.10;62.40
37806;DHT22;25082;50.870;0.022;2023-05-17T10:40:22;20.10;62.60
37806;DHT22;25082;50.870;0.022;2023-05-17T10:42:51;20.00;62.80
37806;DHT22;25082;50.870;0.022;2023-05-17T10:45:22;19.90;63.20
37806;DHT22;25082;50.870;0.022;2023-05-17T10:47:51;19.80;63.50
37806;DHT22;25082;50.870;0.022;2023-05-17T10:50:24;19.70;63.80
37806;DHT22;25082;50.870;0.022;2023-05-17T10:52:51;19.60;63.00
37806;DHT22;25082;50.870;0.022;2023-05-17T10:55:18;19.50;62.60
37806;DHT22;25082;50.870;0.022;2023-05-17T10:57:43;19.50;62.00
37806;DHT22;25082;50.870;0.022;2023-05-17T11:00:09;19.40;61.00
37806;DHT22;25082;50.870;0.022;2023-05-17T11:02:43;19.30;57.90
37806;DHT22;25082;50.870;0.022;2023-05-17T11:05:21;19.30;57.90
37806;DHT22;25082;50.870;0.022;2023-05-17T11:07:47;19.10;58.70
37806;DHT22;25082;50.870;0.022;2023-05-17T11:10:12;19.10;59.10
37806;DHT22;25082;50.870;0.022;2023-05-17T11:15:09;19.10;59.80
37806;DHT22;25082;50.870;0.022;2023-05-17T11:17:45;19.10;59.80
37806;DHT22;25082;50.870;0.022;2023-05-17T11:22:41;19.00;59.70
37806;DHT22;25082;50.870;0.022;2023-05-17T11:25:11;19.10;59.30
37806;DHT22;25082;50.870;0.022;2023-05-17T11:27:46;19.10;58.60
37806;DHT22;25082;50.870;0.022;2023-05-17T11:33:11;19.00;58.10
37806;DHT22;25082;50.870;0.022;2023-05-17T11:35:37;19.00;57.40
37806;DHT22;25082;50.870;0.022;2023-05-17T11:38:22;19.00;57.70
37806;DHT22;25082;50.870;0.022;2023-05-17T11:40:53;19.00;58.50
37806;DHT22;25082;50.870;0.022;2023-05-17T11:43:20;19.00;58.70
37806;DHT22;25082;50.870;0.022;2023-05-17T11:45:49;19.00;59.40
37806;DHT22;25082;50.870;0.022;2023-05-17T11:48:17;19.00;59.20
37806;DHT22;25082;50.870;0.022;2023-05-17T11:50:43;19.00;59.30
37806;DHT22;25082;50.870;0.022;2023-05-17T11:53:09;19.00;59.70
37806;DHT22;25082;50.870;0.022;2023-05-17T11:55:53;19.00;59.80
37806;DHT22;25082;50.870;0.022;2023-05-17T11:58:22;19.00;60.00
37806;DHT22;25082;50.870;0.022;2023-05-17T12:00:51;19.00;60.50
37806;DHT22;25082;50.870;0.022;2023-05-17T12:03:18;19.10;60.80
37806;DHT22;25082;50.870;0.022;2023-05-17T12:05:44;19.10;61.00
37806;DHT22;25082;50.870;0.022;2023-05-17T12:08:10;19.10;61.20
37806;DHT22;25082;50.870;0.022;2023-05-17T12:10:36;19.20;61.40
37806;DHT22;25082;50.870;0.022;2023-05-17T12:13:02;19.20;61.50
37806;DHT22;25082;50.870;0.022;2023-05-17T12:15:28;19.20;61.70
37806;DHT22;25082;50.870;0.022;2023-05-17T12:17:54;19.30;61.90
37806;DHT22;25082;50.870;0.022;2023-05-17T12:20:20;19.30;62.10
37806;DHT22;25082;50.870;0.022;2023-05-17T12:22:52;19.30;62.30
37806;DHT22;25082;50.870;0.022;2023-05-17T12:25:21;19.30;62.30
37806;DHT22;25082;50.870;0.022;2023-05-17T12:27:53;19.30;62.40
37806;DHT22;25082;50.870;0.022;2023-05-17T12:30:36;19.30;62.50
37806;DHT22;25082;50.870;0.022;2023-05-17T12:33:02;19.30;62.60
37806;DHT22;25082;50.870;0.022;2023-05-17T12:35:27;19.30;62.70
37806;DHT22;25082;50.870;0.022;2023-05-17T12:37:53;19.40;62.80
37806;DHT22;25082;50.870;0.022;2023-05-17T12:40:18;19.30;62.90
37806;DHT22;25082;50.870;0.022;2023-05-17T12:42:44;19.40;63.00
37806;DHT22;25082;50.870;0.022;2023-05-17T12:45:10;19.30;63.10
37806;DHT22;25082;50.870;0.022;2023-05-17T12:47:37;19.30;63.20
37806;DHT22;25082;50.870;0.022;2023-05-17T12:50:02;19.30;63.30
37806;DHT22;25082;50.870;0.022;2023-05-17T12:52:33;19.40;63.40
37806;DHT22;25082;50.870;0.022;2023-05-17T12:55:01;19.40;63.50
37806;DHT22;25082;50.870;0.022;2023-05-17T12:57:27;19.30;63.50
37806;DHT22;25082;50.870;0.022;2023-05-17T12:59:52;19.40;63.60
37806;DHT22;25082;50.870;0.022;2023-05-17T13:02:18;19.40;63.70
37806;DHT22;25082;50.870;0.022;2023-05-17T13:04:44;19.40;63.80
37806;DHT22;25082;50.870;0.022;2023-05-17T13:07:10;19.40;63.90
37806;DHT22;25082;50.870;0.022;2023-05-17T13:09:44;19.40;63.90
37806;DHT22;25082;50.870;0.022;2023-05-17T13:12:10;19.40;64.00
37806;DHT22;25082;50.870;0.022;2023-05-17T13:14:39;19.40;64.00
37806;DHT22;25082;50.870;0.022;2023-05-17T13:17:06;19.30;64.10
37806;DHT22;25082;50.870;0.022;2023-05-17T13:19:32;19.30;64.10
37806;DHT22;25082;50.870;0.022;2023-05-17T13:21:59;19.30;64.20
37806;DHT22;25082;50.870;0.022;2023-05-17T13:24:25;19.30;64.20
37806;DHT22;25082;50.870;0.022;2023-05-17T13:26:51;19.30;64.20
37806;DHT22;25082;50.870;0.022;2023-05-17T13:29:17;19.30;64.30
37806;DHT22;25082;50.870;0.022;2023-05-17T13:31:42;19.40;64.40
37806;DHT22;25082;50.870;0.022;2023-05-17T13:34:08;19.40;64.40
37806;DHT22;25082;50.870;0.022;2023-05-17T13:36:34;19.30;64.40
37806;DHT22;25082;50.870;0.022;2023-05-17T13:38:59;19.40;64.50
37806;DHT22;25082;50.870;0.022;2023-05-17T13:41:26;19.40;64.50
37806;DHT22;25082;50.870;0.022;2023-05-17T13:43:52;19.40;64.50
37806;DHT22;25082;50.870;0.022;2023-05-17T13:46:17;19.30;64.50
37806;DHT22;25082;50.870;0.022;2023-05-17T13:48:43;19.30;64.50
37806;DHT22;25082;50.870;0.022;2023-05-17T13:51:08;19.40;64.60
37806;DHT22;25082;50.870;0.022;2023-05-17T13:53:34;19.30;64.60
37806;DHT22;25082;50.870;0.022;2023-05-17T13:56:02;19.40;64.60
37806;DHT22;25082;50.870;0.022;2023-05-17T13:58:28;19.30;64.60
37806;DHT22;25082;50.870;0.022;2023-05-17T14:00:54;19.40;64.70
37806;DHT22;25082;50.870;0.022;2023-05-17T14:03:20;19.30;64.70
37806;DHT22;25082;50.870;0.022;2023-05-17T14:05:46;19.40;64.80
37806;DHT22;25082;50.870;0.022;2023-05-17T14:08:17;19.30;64.80
37806;DHT22;25082;50.870;0.022;2023-05-17T14:10:44;19.40;64.90
37806;DHT22;25082;50.870;0.022;2023-05-17T14:13:10;19.30;64.60
37806;DHT22;25082;50.870;0.022;2023-05-17T14:15:36;19.30;63.70
37806;DHT22;25082;50.870;0.022;2023-05-17T14:18:04;19.30;64.10
37806;DHT22;25082;50.870;0.022;2023-05-17T14:20:29;19.30;64.30
37806;DHT22;25082;50.870;0.022;2023-05-17T14:22:55;19.30;64.50
37806;DHT22;25082;50.870;0.022;2023-05-17T14:25:21;19.30;64.60
37806;DHT22;25082;50.870;0.022;2023-05-17T14:27:46;19.30;64.70
37806;DHT22;25082;50.870;0.022;2023-05-17T14:30:12;19.30;64.70
37806;DHT22;25082;50.870;0.022;2023-05-17T14:32:38;19.40;64.80
37806;DHT22;25082;50.870;0.022;2023-05-17T14:35:05;19.40;64.90
37806;DHT22;25082;50.870;0.022;2023-05-17T14:37:31;19.40;65.20
37806;DHT22;25082;50.870;0.022;2023-05-17T14:39:56;19.40;65.30
37806;DHT22;25082;50.870;0.022;2023-05-17T14:42:22;19.40;65.20
37806;DHT22;25082;50.870;0.022;2023-05-17T14:44:48;19.40;65.20
37806;DHT22;25082;50.870;0.022;2023-05-17T14:47:13;19.40;65.10
37806;DHT22;25082;50.870;0.022;2023-05-17T14:49:39;19.40;65.20
37806;DHT22;25082;50.870;0.022;2023-05-17T14:52:04;19.40;65.30
37806;DHT22;25082;50.870;0.022;2023-05-17T14:54:30;19.30;65.40
37806;DHT22;25082;50.870;0.022;2023-05-17T14:56:57;19.30;65.30
37806;DHT22;25082;50.870;0.022;2023-05-17T14:59:23;19.40;65.40
37806;DHT22;25082;50.870;0.022;2023-05-17T15:01:49;19.40;65.40
37806;DHT22;25082;50.870;0.022;2023-05-17T15:04:15;19.40;65.40
37806;DHT22;25082;50.870;0.022;2023-05-17T15:06:40;19.40;65.40
37806;DHT22;25082;50.870;0.022;2023-05-17T15:09:06;19.40;65.50
37806;DHT22;25082;50.870;0.022;2023-05-17T15:11:33;19.40;65.70
37806;DHT22;25082;50.870;0.022;2023-05-17T15:13:59;19.40;65.90
37806;DHT22;25082;50.870;0.022;2023-05-17T15:16:26;19.40;66.20
37806;DHT22;25082;50.870;0.022;2023-05-17T15:18:51;19.40;66.80
37806;DHT22;25082;50.870;0.022;2023-05-17T15:21:17;19.40;67.00
37806;DHT22;25082;50.870;0.022;2023-05-17T15:23:43;19.40;67.30
37806;DHT22;25082;50.870;0.022;2023-05-17T15:26:09;19.40;67.40
37806;DHT22;25082;50.870;0.022;2023-05-17T15:28:35;19.40;67.40
37806;DHT22;25082;50.870;0.022;2023-05-17T15:31:01;19.40;67.40
37806;DHT22;25082;50.870;0.022;2023-05-17T15:33:26;19.40;67.40
37806;DHT22;25082;50.870;0.022;2023-05-17T15:35:52;19.40;67.30
37806;DHT22;25082;50.870;0.022;2023-05-17T15:38:18;19.40;67.30
37806;DHT22;25082;50.870;0.022;2023-05-17T15:40:44;19.40;67.30
37806;DHT22;25082;50.870;0.022;2023-05-17T15:43:09;19.40;67.50
37806;DHT22;25082;50.870;0.022;2023-05-17T15:45:35;19.40;67.40
37806;DHT22;25082;50.870;0.022;2023-05-17T15:48:01;19.40;67.40